Terminal Aerodrome Forecast
Issued by NWS

Home | Current Version | Previous Version | Text Only | Print | Product List | Glossary On
Versions: 1 2 3 4 5 6 7 8 9 10 11 12 13 14 15 16 17 18 19 20 21 22 23 24 25 26 27
000
FTPA31 PHFO 261300 AAA
TAFMDY
TAF AMD
PMDY 261301Z 2613/2712 35015KT 3SM -RA SCT022 OVC030
      TEMPO 2613/2617 2SM RA BR SCT012 BKN018
     FM261700 36012KT P6SM VCSH SCT025 BKN045
     FM270200 01012KT P6SM SCT025 BKN050
      AMD LTD TO CLD AND WIND=

USA.gov is the U.S. government's official web portal to all federal, state and local government web resources and services.